createdAt,value
2018-09-26T00:02:27.066Z,4.63
2018-09-26T00:04:57.423Z,4.68
2018-09-26T00:07:28.422Z,4.68
2018-09-26T00:09:58.103Z,4.73
2018-09-26T00:12:29.969Z,4.74
2018-09-26T00:14:59.634Z,4.74
2018-09-26T00:17:29.638Z,4.69
2018-09-26T00:20:00.297Z,4.69
2018-09-26T00:22:30.974Z,4.68
2018-09-26T00:25:01.359Z,4.67
2018-09-26T00:27:32.368Z,4.62
2018-09-26T00:30:03.690Z,4.58
2018-09-26T00:32:33.615Z,4.53
2018-09-26T00:35:03.743Z,4.48
2018-09-26T00:37:34.188Z,4.45
2018-09-26T00:40:04.678Z,4.47
2018-09-26T00:42:37.982Z,4.49
2018-09-26T00:45:09.176Z,4.40
2018-09-26T00:47:39.040Z,4.36
2018-09-26T00:50:09.716Z,4.34
2018-09-26T00:52:41.821Z,4.34
2018-09-26T00:55:11.775Z,4.32
2018-09-26T00:57:41.914Z,4.26
2018-09-26T01:00:13.995Z,4.22
2018-09-26T01:02:46.008Z,4.19
2018-09-26T01:05:17.466Z,4.22
2018-09-26T01:07:48.818Z,4.21
2018-09-26T01:10:19.258Z,4.20
2018-09-26T01:12:50.484Z,4.19
2018-09-26T01:15:20.338Z,4.17
2018-09-26T01:17:52.377Z,4.16
2018-09-26T01:20:23.980Z,4.14
2018-09-26T01:22:54.468Z,4.11
2018-09-26T01:25:24.656Z,4.12
2018-09-26T01:27:54.590Z,4.12
2018-09-26T01:30:24.756Z,4.12
2018-09-26T01:32:56.612Z,4.11
2018-09-26T01:35:29.442Z,4.10
2018-09-26T01:38:01.100Z,4.06
2018-09-26T01:40:30.477Z,4.05
2018-09-26T01:43:00.240Z,4.04
2018-09-26T01:45:30.655Z,4.03
2018-09-26T01:48:02.328Z,4.01
2018-09-26T01:50:33.397Z,4.01
2018-09-26T01:53:03.840Z,4.00
2018-09-26T01:55:36.788Z,4.02
2018-09-26T01:58:09.306Z,4.02
2018-09-26T02:00:39.284Z,4.00
2018-09-26T02:03:10.010Z,3.98
2018-09-26T02:05:43.811Z,4.00
2018-09-26T02:08:19.734Z,4.09
2018-09-26T02:10:52.604Z,4.08
2018-09-26T02:13:25.279Z,4.08
2018-09-26T02:15:58.400Z,4.14
2018-09-26T02:18:31.969Z,4.16
2018-09-26T02:21:02.458Z,4.14
2018-09-26T02:23:34.479Z,4.16
2018-09-26T02:26:09.146Z,4.13
2018-09-26T02:28:40.392Z,4.14
2018-09-26T02:31:11.986Z,4.13
2018-09-26T02:33:42.490Z,4.06
2018-09-26T02:36:13.191Z,4.02
2018-09-26T02:38:48.229Z,3.98
2018-09-26T02:41:18.450Z,3.94
2018-09-26T02:43:48.998Z,3.94
2018-09-26T02:46:25.777Z,3.93
2018-09-26T02:49:04.758Z,3.91
2018-09-26T02:51:41.246Z,3.92
2018-09-26T02:54:11.648Z,3.92
2018-09-26T02:56:42.336Z,3.94
2018-09-26T02:59:12.384Z,3.95
2018-09-26T03:01:44.887Z,3.97
2018-09-26T03:04:20.604Z,4.01
2018-09-26T03:06:51.587Z,4.05
2018-09-26T03:09:22.287Z,4.09
2018-09-26T03:11:53.200Z,4.10
2018-09-26T03:14:24.060Z,4.08
2018-09-26T03:16:56.111Z,4.06
2018-09-26T03:19:26.967Z,4.04
2018-09-26T03:21:56.684Z,4.08
2018-09-26T03:24:29.643Z,4.15
2018-09-26T03:27:00.540Z,4.20
2018-09-26T03:29:33.326Z,4.19
2018-09-26T03:32:06.126Z,4.19
2018-09-26T03:34:39.827Z,4.14
2018-09-26T03:37:12.412Z,4.09
2018-09-26T03:39:42.860Z,4.13
2018-09-26T03:42:16.166Z,4.12
2018-09-26T03:44:49.986Z,4.10
2018-09-26T03:47:25.033Z,4.08
2018-09-26T03:49:57.576Z,4.15
2018-09-26T03:52:27.181Z,4.14
2018-09-26T03:54:57.095Z,4.11
2018-09-26T03:57:27.256Z,4.09
2018-09-26T03:59:56.888Z,4.05
2018-09-26T04:02:26.876Z,4.03
2018-09-26T04:04:57.136Z,4.00
2018-09-26T04:07:27.136Z,3.98
2018-09-26T04:09:58.679Z,3.98
2018-09-26T04:12:28.605Z,3.97
2018-09-26T04:14:58.460Z,3.94
2018-09-26T04:17:28.633Z,3.99
2018-09-26T04:19:58.477Z,4.08
2018-09-26T04:22:30.473Z,4.13
2018-09-26T04:24:59.980Z,4.09
2018-09-26T04:27:30.395Z,4.01
2018-09-26T04:30:00.514Z,3.96
2018-09-26T04:32:31.261Z,3.97
2018-09-26T04:35:00.865Z,3.96
2018-09-26T04:37:30.980Z,3.94
2018-09-26T04:40:00.404Z,3.92
2018-09-26T04:42:30.582Z,3.90
2018-09-26T04:45:00.147Z,3.90
2018-09-26T04:47:30.424Z,3.94
2018-09-26T04:50:00.995Z,3.94
2018-09-26T04:52:31.449Z,3.92
2018-09-26T04:55:02.451Z,3.91
2018-09-26T04:57:33.082Z,3.90
2018-09-26T05:00:04.577Z,3.93
2018-09-26T05:02:35.039Z,3.95
2018-09-26T05:05:05.283Z,3.95
2018-09-26T05:07:36.747Z,3.97
2018-09-26T05:10:07.475Z,3.98
2018-09-26T05:12:38.098Z,4.00
2018-09-26T05:15:07.649Z,3.94
2018-09-26T05:17:37.715Z,3.98
2018-09-26T05:20:07.743Z,4.01
2018-09-26T05:22:38.479Z,3.99
2018-09-26T05:25:08.385Z,3.98
2018-09-26T05:27:39.115Z,3.98
2018-09-26T05:30:11.017Z,4.01
2018-09-26T05:32:41.099Z,4.03
2018-09-26T05:35:13.373Z,4.05
2018-09-26T05:37:43.837Z,4.07
2018-09-26T05:40:14.682Z,4.09
2018-09-26T05:42:45.555Z,4.11
2018-09-26T05:45:16.036Z,4.11
2018-09-26T05:47:46.174Z,4.14
2018-09-26T05:50:16.279Z,4.18
2018-09-26T05:52:46.529Z,4.21
2018-09-26T05:55:17.343Z,4.21
2018-09-26T05:57:48.057Z,4.20
2018-09-26T06:00:18.516Z,4.20
2018-09-26T06:02:50.159Z,4.19
2018-09-26T06:05:22.562Z,4.19
2018-09-26T06:07:53.353Z,4.20
2018-09-26T06:10:23.853Z,4.22
2018-09-26T06:12:56.213Z,4.28
2018-09-26T06:15:26.663Z,4.34
2018-09-26T06:17:57.588Z,4.44
2018-09-26T06:20:29.675Z,4.52
2018-09-26T06:22:59.615Z,4.61
2018-09-26T06:25:30.891Z,4.71
2018-09-26T06:28:03.547Z,4.80
2018-09-26T06:30:33.653Z,4.89
2018-09-26T06:33:04.571Z,4.97
2018-09-26T06:35:36.365Z,5.05
2018-09-26T06:38:06.519Z,5.09
2018-09-26T06:40:37.228Z,5.11
2018-09-26T06:43:07.863Z,5.11
2018-09-26T06:45:42.396Z,5.10
2018-09-26T06:48:12.889Z,5.15
2018-09-26T06:50:44.710Z,5.15
2018-09-26T06:53:15.749Z,5.30
2018-09-26T06:55:46.229Z,5.36
2018-09-26T06:58:17.170Z,5.37
2018-09-26T07:00:51.129Z,5.50
2018-09-26T07:03:21.316Z,5.62
2018-09-26T07:05:52.520Z,5.75
2018-09-26T07:08:25.445Z,5.93
2018-09-26T07:10:56.366Z,6.07
2018-09-26T07:13:26.772Z,6.18
2018-09-26T07:15:58.826Z,6.30
2018-09-26T07:18:31.755Z,6.44
2018-09-26T07:21:03.548Z,6.56
2018-09-26T07:23:38.064Z,6.65
2018-09-26T07:26:11.760Z,6.74
2018-09-26T07:28:42.496Z,6.85
2018-09-26T07:31:14.378Z,6.98
2018-09-26T07:33:44.844Z,7.10
2018-09-26T07:36:15.467Z,7.17
2018-09-26T07:38:46.204Z,7.27
2018-09-26T07:41:16.161Z,7.34
2018-09-26T07:43:48.445Z,7.46
2018-09-26T07:46:19.979Z,7.60
2018-09-26T07:48:50.154Z,7.67
2018-09-26T07:51:20.572Z,7.77
2018-09-26T07:53:54.298Z,7.88
2018-09-26T07:56:24.680Z,8.02
2018-09-26T07:58:56.647Z,8.08
2018-09-26T08:01:30.318Z,8.14
2018-09-26T08:04:03.136Z,8.32
2018-09-26T08:06:33.008Z,8.49
2018-09-26T08:09:03.237Z,8.74
2018-09-26T08:11:36.965Z,8.93
2018-09-26T08:14:07.742Z,8.94
2018-09-26T08:16:39.376Z,8.93
2018-09-26T08:19:10.208Z,8.94
2018-09-26T08:21:44.947Z,9.01
2018-09-26T08:24:19.012Z,9.01
2018-09-26T08:26:50.807Z,9.06
2018-09-26T08:29:23.730Z,9.11
2018-09-26T08:31:55.497Z,9.21
2018-09-26T08:34:27.516Z,9.21
2018-09-26T08:36:59.857Z,9.24
2018-09-26T08:39:30.968Z,9.22
2018-09-26T08:42:01.237Z,9.19
2018-09-26T08:44:33.239Z,9.26
2018-09-26T08:47:04.766Z,9.41
2018-09-26T08:49:37.624Z,9.55
2018-09-26T08:52:09.346Z,9.64
2018-09-26T08:54:39.982Z,9.80
2018-09-26T08:57:12.023Z,9.88
2018-09-26T08:59:46.569Z,9.96
2018-09-26T09:02:20.638Z,10.03
2018-09-26T09:04:52.412Z,10.13
2018-09-26T09:07:22.759Z,10.20
2018-09-26T09:09:54.194Z,10.26
2018-09-26T09:12:25.718Z,10.36
2018-09-26T09:15:00.998Z,10.41
2018-09-26T09:17:31.528Z,10.52
2018-09-26T09:20:08.211Z,10.52
2018-09-26T09:22:40.027Z,10.52
2018-09-26T09:25:12.999Z,10.51
2018-09-26T09:27:47.686Z,10.59
2018-09-26T09:30:18.665Z,10.69
2018-09-26T09:32:53.542Z,10.78
2018-09-26T09:35:25.258Z,10.87
2018-09-26T09:37:55.919Z,10.94
2018-09-26T09:40:26.457Z,11.07
2018-09-26T09:43:01.068Z,11.20
2018-09-26T09:45:33.025Z,11.25
2018-09-26T09:48:04.998Z,11.28
2018-09-26T09:50:36.819Z,11.43
2018-09-26T09:53:11.783Z,11.56
2018-09-26T09:55:47.413Z,11.78
2018-09-26T09:58:20.061Z,11.83
2018-09-26T10:00:59.537Z,11.90
2018-09-26T10:03:32.515Z,11.99
2018-09-26T10:06:03.602Z,12.03
2018-09-26T10:08:40.225Z,12.03
2018-09-26T10:11:12.113Z,12.03
2018-09-26T10:13:43.782Z,12.09
2018-09-26T10:16:16.605Z,12.25
2018-09-26T10:18:52.719Z,12.38
2018-09-26T10:21:25.682Z,12.47
2018-09-26T10:23:59.483Z,12.48
2018-09-26T10:26:34.403Z,12.47
2018-09-26T10:29:08.587Z,12.54
2018-09-26T10:31:39.577Z,12.59
2018-09-26T10:34:13.141Z,12.72
2018-09-26T10:36:45.242Z,12.83
2018-09-26T10:39:18.785Z,12.97
2018-09-26T10:41:53.473Z,13.00
2018-09-26T10:44:27.414Z,13.09
2018-09-26T10:46:58.955Z,13.14
2018-09-26T10:49:28.071Z,13.23
2018-09-26T10:52:00.122Z,13.24
2018-09-26T10:54:33.117Z,13.24
2018-09-26T10:57:04.880Z,13.35
2018-09-26T10:59:38.598Z,13.35
2018-09-26T11:02:12.547Z,13.31
2018-09-26T11:04:45.319Z,13.38
2018-09-26T11:07:18.081Z,13.41
2018-09-26T11:09:48.325Z,13.50
2018-09-26T11:12:22.831Z,13.61
2018-09-26T11:14:55.568Z,13.61
2018-09-26T11:17:24.947Z,13.66
2018-09-26T11:19:57.145Z,13.73
2018-09-26T11:22:29.224Z,13.76
2018-09-26T11:25:00.747Z,13.80
2018-09-26T11:27:36.796Z,13.81
2018-09-26T11:30:09.251Z,13.78
2018-09-26T11:32:42.184Z,13.81
2018-09-26T11:35:18.011Z,13.89
2018-09-26T11:37:50.716Z,13.93
2018-09-26T11:40:21.443Z,13.96
2018-09-26T11:42:53.037Z,14.02
2018-09-26T11:45:22.688Z,14.09
2018-09-26T11:47:55.671Z,14.15
2018-09-26T11:50:31.445Z,14.14
2018-09-26T11:53:05.248Z,14.15
2018-09-26T11:55:40.101Z,14.18
2018-09-26T11:58:11.793Z,14.26
2018-09-26T12:00:43.809Z,14.36
2018-09-26T12:03:16.512Z,14.44
2018-09-26T12:05:47.341Z,14.50
2018-09-26T12:08:18.531Z,14.55
2018-09-26T12:10:50.934Z,14.54
2018-09-26T12:13:25.855Z,14.48
2018-09-26T12:15:59.973Z,14.48
2018-09-26T12:18:30.643Z,14.49
2018-09-26T12:21:02.056Z,14.48
2018-09-26T12:23:32.159Z,14.53
2018-09-26T12:26:05.058Z,14.63
2018-09-26T12:28:35.030Z,14.76
2018-09-26T12:31:06.573Z,14.84
2018-09-26T12:33:38.331Z,14.89
2018-09-26T12:36:15.331Z,14.98
2018-09-26T12:38:46.909Z,15.03
2018-09-26T12:41:19.747Z,15.09
2018-09-26T12:43:49.333Z,15.10
2018-09-26T12:46:23.887Z,15.17
2018-09-26T12:48:55.700Z,15.22
2018-09-26T12:51:31.887Z,15.27
2018-09-26T12:54:02.006Z,15.32
2018-09-26T12:56:32.309Z,15.32
2018-09-26T12:59:07.412Z,15.30
2018-09-26T13:01:38.306Z,15.21
2018-09-26T13:04:10.926Z,15.40
2018-09-26T13:06:45.673Z,15.42
2018-09-26T13:09:17.646Z,15.49
